createdAt,value
2019-06-01T00:01:50.212Z,11.30
2019-06-01T00:04:29.357Z,11.20
2019-06-01T00:07:06.912Z,11.10
2019-06-01T00:09:45.163Z,11.10
2019-06-01T00:12:22.928Z,11.10
2019-06-01T00:15:01.412Z,11.00
2019-06-01T00:17:40.270Z,11.10
2019-06-01T00:20:30.440Z,11.10
2019-06-01T00:23:08.096Z,11.10
2019-06-01T00:25:46.476Z,11.20
2019-06-01T00:28:24.045Z,11.20
2019-06-01T00:31:01.360Z,11.20
2019-06-01T00:33:38.650Z,11.30
2019-06-01T00:36:28.119Z,11.30
2019-06-01T00:39:12.781Z,11.40
2019-06-01T00:41:50.390Z,11.40
2019-06-01T00:44:27.717Z,11.50
2019-06-01T00:47:05.083Z,11.50
2019-06-01T00:49:42.671Z,11.40
2019-06-01T00:52:20.135Z,11.40
2019-06-01T00:54:58.163Z,11.50
2019-06-01T00:57:37.177Z,11.50
2019-06-01T01:00:14.898Z,11.40
2019-06-01T01:02:52.275Z,11.50
2019-06-01T01:05:29.535Z,11.40
2019-06-01T01:08:06.793Z,11.40
2019-06-01T01:10:44.828Z,11.30
2019-06-01T01:13:23.998Z,11.30
2019-06-01T01:16:01.455Z,11.30
2019-06-01T01:18:38.814Z,11.20
2019-06-01T01:21:16.185Z,11.20
2019-06-01T01:23:54.751Z,11.20
2019-06-01T01:26:32.027Z,11.20
2019-06-01T01:29:09.355Z,11.20
2019-06-01T01:31:47.055Z,11.10
2019-06-01T01:34:25.572Z,11.00
2019-06-01T01:37:03.112Z,11.00
2019-06-01T01:39:40.753Z,11.00
2019-06-01T01:42:18.110Z,10.80
2019-06-01T01:45:01.631Z,10.90
2019-06-01T01:47:40.000Z,10.90
2019-06-01T01:50:17.948Z,10.80
2019-06-01T01:52:56.837Z,10.70
2019-06-01T01:55:34.501Z,10.70
2019-06-01T01:58:12.022Z,10.70
2019-06-01T02:00:52.958Z,10.70
2019-06-01T02:03:30.810Z,10.70
2019-06-01T02:06:08.606Z,10.90
2019-06-01T02:08:46.036Z,10.90
2019-06-01T02:11:23.466Z,11.00
2019-06-01T02:14:02.065Z,11.20
2019-06-01T02:16:39.697Z,11.20
2019-06-01T02:19:17.051Z,11.30
2019-06-01T02:21:54.507Z,11.40
2019-06-01T02:24:32.779Z,11.40
2019-06-01T02:27:10.331Z,11.50
2019-06-01T02:29:47.853Z,11.50
2019-06-01T02:32:25.838Z,11.60
2019-06-01T02:35:05.039Z,11.70
2019-06-01T02:37:43.100Z,11.70
2019-06-01T02:40:21.090Z,11.70
2019-06-01T02:42:59.280Z,11.70
2019-06-01T02:45:37.323Z,11.80
2019-06-01T02:48:14.706Z,11.80
2019-06-01T02:50:52.338Z,11.80
2019-06-01T02:53:30.800Z,11.90
2019-06-01T02:56:08.154Z,11.90
2019-06-01T02:58:45.568Z,12.00
2019-06-01T03:01:35.529Z,12.00
2019-06-01T03:04:13.107Z,12.00
2019-06-01T03:06:52.829Z,12.00
2019-06-01T03:09:32.507Z,12.10
2019-06-01T03:12:12.732Z,12.10
2019-06-01T03:14:52.154Z,12.10
2019-06-01T03:17:32.688Z,12.20
2019-06-01T03:20:11.899Z,12.20
2019-06-01T03:22:53.375Z,12.30
2019-06-01T03:25:31.578Z,12.30
2019-06-01T03:28:12.435Z,12.30
2019-06-01T03:30:49.912Z,12.40
2019-06-01T03:33:27.970Z,12.40
2019-06-01T03:36:06.921Z,12.50
2019-06-01T03:38:45.656Z,12.60
2019-06-01T03:41:23.044Z,12.60
2019-06-01T03:44:02.418Z,12.70
2019-06-01T03:46:41.023Z,12.70
2019-06-01T03:49:19.700Z,12.90
2019-06-01T03:51:57.803Z,12.90
2019-06-01T03:54:35.689Z,13.00
2019-06-01T03:57:13.631Z,13.10
2019-06-01T03:59:50.942Z,13.20
2019-06-01T04:02:33.109Z,13.20
2019-06-01T04:05:09.339Z,13.30
2019-06-01T04:07:47.820Z,13.40
2019-06-01T04:10:25.220Z,13.40
2019-06-01T04:13:03.540Z,13.50
2019-06-01T04:15:41.428Z,13.30
2019-06-01T04:18:18.845Z,13.30
2019-06-01T04:20:56.307Z,13.40
2019-06-01T04:23:36.373Z,13.50
2019-06-01T04:26:13.779Z,13.60
2019-06-01T04:28:51.137Z,13.70
2019-06-01T04:31:29.453Z,13.80
2019-06-01T04:34:07.061Z,14.10
2019-06-01T04:36:44.626Z,14.30
2019-06-01T04:39:22.471Z,14.20
2019-06-01T04:42:00.597Z,14.20
2019-06-01T04:44:38.894Z,14.20
2019-06-01T04:47:16.606Z,14.20
2019-06-01T04:49:55.064Z,14.50
2019-06-01T04:52:43.770Z,14.30
2019-06-01T04:55:21.105Z,14.30
2019-06-01T04:57:59.119Z,14.10
2019-06-01T05:00:36.648Z,14.00
2019-06-01T05:03:15.217Z,14.20
2019-06-01T05:05:53.126Z,14.40
2019-06-01T05:08:31.678Z,14.40
2019-06-01T05:11:10.257Z,14.30
2019-06-01T05:13:48.032Z,14.60
2019-06-01T05:16:25.523Z,14.90
2019-06-01T05:19:03.920Z,15.50
2019-06-01T05:21:41.312Z,16.10
2019-06-01T05:24:19.355Z,16.70
2019-06-01T05:26:57.198Z,17.20
2019-06-01T05:29:34.428Z,18.10
2019-06-01T05:32:12.605Z,18.50
2019-06-01T05:34:50.061Z,19.40
2019-06-01T05:37:27.458Z,19.80
2019-06-01T05:40:05.535Z,19.50
2019-06-01T05:42:42.957Z,19.10
2019-06-01T05:45:22.852Z,19.10
2019-06-01T05:48:00.342Z,19.50
2019-06-01T05:50:37.790Z,20.60
2019-06-01T05:53:15.035Z,21.10
2019-06-01T05:55:52.495Z,21.00
2019-06-01T05:58:30.105Z,21.20
2019-06-01T06:01:07.436Z,21.00
2019-06-01T06:03:44.836Z,20.40
2019-06-01T06:06:22.541Z,19.50
2019-06-01T06:09:00.113Z,19.00
2019-06-01T06:11:37.954Z,18.70
2019-06-01T06:14:15.512Z,18.30
2019-06-01T06:16:53.977Z,18.20
2019-06-01T06:19:31.305Z,18.20
2019-06-01T06:22:08.717Z,18.20
2019-06-01T06:24:46.031Z,18.40
2019-06-01T06:27:23.291Z,18.30
2019-06-01T06:30:00.686Z,18.70
2019-06-01T06:32:38.232Z,19.60
2019-06-01T06:35:15.527Z,21.10
2019-06-01T06:37:54.386Z,22.40
2019-06-01T06:40:31.703Z,23.70
2019-06-01T06:43:18.985Z,24.30
2019-06-01T06:45:48.197Z,25.00
2019-06-01T06:48:26.781Z,25.20
2019-06-01T06:51:04.231Z,24.50
2019-06-01T06:53:41.870Z,23.30
2019-06-01T06:56:19.942Z,23.90
2019-06-01T06:58:57.383Z,24.50
2019-06-01T07:01:34.641Z,24.60
2019-06-01T07:04:13.225Z,25.00
2019-06-01T07:06:51.902Z,23.80
2019-06-01T07:09:29.867Z,23.50
2019-06-01T07:12:07.425Z,24.00
2019-06-01T07:14:44.728Z,23.40
2019-06-01T07:17:22.004Z,22.00
2019-06-01T07:19:59.658Z,21.50
2019-06-01T07:22:37.028Z,21.30
2019-06-01T07:25:14.824Z,21.20
2019-06-01T07:27:52.517Z,21.50
2019-06-01T07:30:29.776Z,21.10
2019-06-01T07:33:06.988Z,21.60
2019-06-01T07:35:44.447Z,21.50
2019-06-01T07:38:22.319Z,21.90
2019-06-01T07:40:59.906Z,21.70
2019-06-01T07:43:37.351Z,21.10
2019-06-01T07:46:15.624Z,20.80
2019-06-01T07:48:53.080Z,21.10
2019-06-01T07:51:31.646Z,21.00
2019-06-01T07:54:09.299Z,21.40
2019-06-01T07:56:46.954Z,22.30
2019-06-01T07:59:26.251Z,22.10
2019-06-01T08:02:04.169Z,21.60
2019-06-01T08:04:53.152Z,21.50
2019-06-01T08:07:23.292Z,21.10
2019-06-01T08:10:01.850Z,20.80
2019-06-01T08:12:39.618Z,20.50
2019-06-01T08:15:17.141Z,20.90
2019-06-01T08:17:54.500Z,21.40
2019-06-01T08:20:32.264Z,21.80
2019-06-01T08:23:09.515Z,21.90
2019-06-01T08:25:46.908Z,22.00
2019-06-01T08:28:24.837Z,22.10
2019-06-01T08:31:02.458Z,21.50
2019-06-01T08:33:40.070Z,21.40
2019-06-01T08:36:27.305Z,20.70
2019-06-01T08:39:06.882Z,20.10
2019-06-01T08:41:44.183Z,19.70
2019-06-01T08:44:21.521Z,19.60
2019-06-01T08:46:58.784Z,19.40
2019-06-01T08:49:35.996Z,19.50
2019-06-01T08:52:13.414Z,19.20
2019-06-01T08:54:50.736Z,19.20
2019-06-01T08:57:28.310Z,18.90
2019-06-01T09:00:07.516Z,19.10
2019-06-01T09:02:45.910Z,19.20
2019-06-01T09:05:26.106Z,19.10
2019-06-01T09:08:02.123Z,19.30
2019-06-01T09:10:50.936Z,19.40
2019-06-01T09:13:29.125Z,19.60
2019-06-01T09:16:06.745Z,19.60
2019-06-01T09:18:44.454Z,19.60
2019-06-01T09:21:22.145Z,19.90
2019-06-01T09:24:10.967Z,19.90
2019-06-01T09:26:50.053Z,20.50
2019-06-01T09:29:27.831Z,21.20
2019-06-01T09:32:10.569Z,21.20
2019-06-01T09:34:44.908Z,21.00
2019-06-01T09:37:22.401Z,20.80
2019-06-01T09:39:59.712Z,21.20
2019-06-01T09:42:38.529Z,20.90
2019-06-01T09:45:16.437Z,21.60
2019-06-01T09:47:53.968Z,22.00
2019-06-01T09:50:31.390Z,21.60
2019-06-01T09:53:08.757Z,22.00
2019-06-01T09:55:46.074Z,22.10
2019-06-01T09:58:23.385Z,22.30
2019-06-01T10:01:00.875Z,23.30
2019-06-01T10:03:38.674Z,23.80
2019-06-01T10:06:16.480Z,24.00
2019-06-01T10:08:53.699Z,23.80
2019-06-01T10:11:32.518Z,24.00
2019-06-01T10:14:10.236Z,25.40
2019-06-01T10:16:47.614Z,24.90
2019-06-01T10:19:24.891Z,24.00
2019-06-01T10:22:03.461Z,23.30
2019-06-01T10:24:42.033Z,23.10
2019-06-01T10:27:19.853Z,23.30
2019-06-01T10:29:57.318Z,23.30
2019-06-01T10:32:35.642Z,23.00
2019-06-01T10:35:13.461Z,22.80
2019-06-01T10:37:50.931Z,23.10
2019-06-01T10:40:28.358Z,23.30
2019-06-01T10:43:06.176Z,23.30
2019-06-01T10:45:43.850Z,23.00
2019-06-01T10:48:21.038Z,23.20
2019-06-01T10:50:58.563Z,23.40
2019-06-01T10:53:38.113Z,23.70
2019-06-01T10:56:15.592Z,24.10
2019-06-01T10:58:59.961Z,24.00
2019-06-01T11:01:34.162Z,23.40
2019-06-01T11:04:10.934Z,23.90
2019-06-01T11:06:48.954Z,23.60
2019-06-01T11:09:26.942Z,23.50
2019-06-01T11:12:04.564Z,23.70
2019-06-01T11:14:41.770Z,24.10
2019-06-01T11:17:25.384Z,24.60
2019-06-01T11:20:06.466Z,25.10
2019-06-01T11:22:44.858Z,25.50
2019-06-01T11:25:22.741Z,25.00
2019-06-01T11:28:01.435Z,24.90
2019-06-01T11:30:39.957Z,25.30
2019-06-01T11:33:19.113Z,26.00
2019-06-01T11:35:56.515Z,26.20
2019-06-01T11:38:45.196Z,26.20
2019-06-01T11:41:23.020Z,25.70
2019-06-01T11:44:02.459Z,25.50
2019-06-01T11:46:41.113Z,25.20
2019-06-01T11:49:21.258Z,25.30
2019-06-01T11:51:59.151Z,25.70
2019-06-01T11:54:37.095Z,26.10
2019-06-01T11:57:14.494Z,26.00
2019-06-01T11:59:52.015Z,26.30
2019-06-01T12:02:29.160Z,26.40
2019-06-01T12:05:08.290Z,26.40
2019-06-01T12:07:46.627Z,26.00
2019-06-01T12:10:23.825Z,25.90
2019-06-01T12:13:01.590Z,25.60
2019-06-01T12:15:40.296Z,24.90
2019-06-01T12:18:18.854Z,24.40
2019-06-01T12:20:56.236Z,24.20
2019-06-01T12:23:33.647Z,24.20
2019-06-01T12:26:22.970Z,24.60
2019-06-01T12:29:00.292Z,24.50
2019-06-01T12:31:37.985Z,24.70
2019-06-01T12:34:15.282Z,25.00
2019-06-01T12:36:52.439Z,25.00
2019-06-01T12:39:30.134Z,25.00
2019-06-01T12:42:07.572Z,25.20
2019-06-01T12:44:45.876Z,24.60
2019-06-01T12:47:23.366Z,24.30
2019-06-01T12:50:02.101Z,24.10
2019-06-01T12:52:40.488Z,24.20
2019-06-01T12:55:18.215Z,23.90
2019-06-01T12:57:55.992Z,23.80
2019-06-01T13:00:33.267Z,24.10
2019-06-01T13:03:10.794Z,24.60
2019-06-01T13:05:47.991Z,25.00
2019-06-01T13:08:26.601Z,25.00
2019-06-01T13:11:04.927Z,24.70
2019-06-01T13:13:43.178Z,24.60
2019-06-01T13:16:20.639Z,24.50
2019-06-01T13:18:58.015Z,24.50
2019-06-01T13:21:35.405Z,24.60
2019-06-01T13:24:12.823Z,24.60
2019-06-01T13:26:50.225Z,24.30
2019-06-01T13:29:27.586Z,24.30
2019-06-01T13:32:06.087Z,24.10
2019-06-01T13:34:44.689Z,24.20
2019-06-01T13:37:22.038Z,24.20
2019-06-01T13:39:59.453Z,24.50
2019-06-01T13:42:37.021Z,24.40
2019-06-01T13:45:15.191Z,24.20
2019-06-01T13:47:54.140Z,24.40
2019-06-01T13:50:31.805Z,24.60
2019-06-01T13:53:09.100Z,24.70
2019-06-01T13:55:46.535Z,24.60
2019-06-01T13:58:23.848Z,24.40
2019-06-01T14:01:01.275Z,24.40
2019-06-01T14:03:38.684Z,24.40
2019-06-01T14:06:15.989Z,24.60
2019-06-01T14:08:53.785Z,24.40
2019-06-01T14:11:31.407Z,24.40
2019-06-01T14:14:08.767Z,24.30
2019-06-01T14:16:47.507Z,24.40
2019-06-01T14:19:25.537Z,24.60
2019-06-01T14:22:03.034Z,24.50
2019-06-01T14:24:43.855Z,24.40
2019-06-01T14:27:19.371Z,24.50
2019-06-01T14:29:57.247Z,24.70
2019-06-01T14:32:34.867Z,24.80
2019-06-01T14:35:12.336Z,24.60
2019-06-01T14:37:51.230Z,24.40
2019-06-01T14:40:28.858Z,24.10
2019-06-01T14:43:06.148Z,24.10
2019-06-01T14:45:43.528Z,24.10
2019-06-01T14:48:21.194Z,24.10
2019-06-01T14:50:59.020Z,24.10
2019-06-01T14:53:36.358Z,24.30
2019-06-01T14:56:14.225Z,24.40
2019-06-01T14:58:51.939Z,24.50
2019-06-01T15:01:32.854Z,24.30
2019-06-01T15:04:11.368Z,23.90
2019-06-01T15:06:50.098Z,23.50
2019-06-01T15:09:28.769Z,23.40
2019-06-01T15:12:06.285Z,23.30
2019-06-01T15:14:44.128Z,23.20
2019-06-01T15:17:21.405Z,23.10
2019-06-01T15:19:59.621Z,22.90
2019-06-01T15:22:36.932Z,22.80
2019-06-01T15:25:14.623Z,22.70
2019-06-01T15:27:52.665Z,22.60
2019-06-01T15:30:30.244Z,22.30
2019-06-01T15:33:09.006Z,21.10
2019-06-01T15:35:46.427Z,20.10
2019-06-01T15:38:23.602Z,19.40
2019-06-01T15:41:00.896Z,19.00
2019-06-01T15:43:38.498Z,18.60
2019-06-01T15:46:15.811Z,18.40
2019-06-01T15:48:53.627Z,18.20
2019-06-01T15:51:31.915Z,18.10
2019-06-01T15:54:09.135Z,18.10
2019-06-01T15:56:47.351Z,18.10
2019-06-01T15:59:24.653Z,18.00
2019-06-01T16:02:03.292Z,18.10
2019-06-01T16:04:40.919Z,18.00
2019-06-01T16:07:19.600Z,18.00
2019-06-01T16:09:57.746Z,18.10
2019-06-01T16:12:36.092Z,18.20
2019-06-01T16:15:14.242Z,18.30
2019-06-01T16:17:51.960Z,18.60
2019-06-01T16:20:29.257Z,18.80
2019-06-01T16:23:06.898Z,19.10
2019-06-01T16:25:49.977Z,19.20
2019-06-01T16:28:25.284Z,19.30
2019-06-01T16:31:04.830Z,19.60
2019-06-01T16:33:43.287Z,19.80
2019-06-01T16:36:22.285Z,19.90
2019-06-01T16:39:04.390Z,20.00
2019-06-01T16:41:40.538Z,20.00
2019-06-01T16:44:19.951Z,20.00
2019-06-01T16:46:57.670Z,20.10
2019-06-01T16:49:35.920Z,20.30
2019-06-01T16:52:13.256Z,20.20
2019-06-01T16:54:51.839Z,20.00
2019-06-01T16:57:29.679Z,19.90
2019-06-01T17:00:10.003Z,19.90
2019-06-01T17:02:47.881Z,19.60
2019-06-01T17:05:25.110Z,19.40
2019-06-01T17:08:02.796Z,19.50
2019-06-01T17:10:40.621Z,19.40
2019-06-01T17:13:18.045Z,19.50
2019-06-01T17:15:56.887Z,19.60
2019-06-01T17:18:35.555Z,19.70
2019-06-01T17:21:13.055Z,19.80
2019-06-01T17:23:50.462Z,19.70
2019-06-01T17:26:27.938Z,19.60
2019-06-01T17:29:06.214Z,19.50
2019-06-01T17:31:54.060Z,19.40
2019-06-01T17:34:24.284Z,19.40
2019-06-01T17:37:02.726Z,19.40
2019-06-01T17:39:40.485Z,19.40
2019-06-01T17:42:17.798Z,19.30
2019-06-01T17:44:55.529Z,19.20
2019-06-01T17:47:32.885Z,19.10
2019-06-01T17:50:11.783Z,19.10
2019-06-01T17:52:50.680Z,19.00
2019-06-01T17:55:32.935Z,19.00
2019-06-01T17:58:12.192Z,18.80
2019-06-01T18:00:50.642Z,18.60
2019-06-01T18:03:28.510Z,18.60
2019-06-01T18:06:07.780Z,18.60
2019-06-01T18:08:45.420Z,18.50
2019-06-01T18:11:23.283Z,18.50
2019-06-01T18:14:02.116Z,18.40
2019-06-01T18:16:40.128Z,18.40
2019-06-01T18:19:17.661Z,18.40
2019-06-01T18:21:55.098Z,18.30
2019-06-01T18:24:32.849Z,18.30
2019-06-01T18:27:10.666Z,18.20
2019-06-01T18:29:49.755Z,18.20
2019-06-01T18:32:32.607Z,18.10
2019-06-01T18:35:19.471Z,18.10
2019-06-01T18:37:55.150Z,18.00
2019-06-01T18:40:32.479Z,18.00
2019-06-01T18:43:14.645Z,17.90
2019-06-01T18:45:51.952Z,17.90
2019-06-01T18:48:29.619Z,17.90
2019-06-01T18:51:08.162Z,17.80
2019-06-01T18:53:45.827Z,17.80
2019-06-01T18:56:23.569Z,17.80
2019-06-01T18:59:01.381Z,17.70
2019-06-01T19:01:39.169Z,17.60
2019-06-01T19:04:16.623Z,17.50
2019-06-01T19:06:54.107Z,17.40
2019-06-01T19:09:31.947Z,17.30
2019-06-01T19:12:09.140Z,17.20
2019-06-01T19:15:02.223Z,17.20
2019-06-01T19:17:40.447Z,17.00
2019-06-01T19:20:18.716Z,17.00
2019-06-01T19:22:56.005Z,17.00
2019-06-01T19:25:33.628Z,16.90
2019-06-01T19:28:13.114Z,16.80
2019-06-01T19:30:50.916Z,16.80
2019-06-01T19:33:28.727Z,16.80
2019-06-01T19:36:06.937Z,16.70
2019-06-01T19:38:46.872Z,16.60
2019-06-01T19:41:25.590Z,16.50
2019-06-01T19:44:03.018Z,16.50
2019-06-01T19:46:41.604Z,16.30
2019-06-01T19:49:19.301Z,16.30
2019-06-01T19:51:56.733Z,16.20
2019-06-01T19:54:34.503Z,16.20
2019-06-01T19:57:11.885Z,16.10
2019-06-01T19:59:49.481Z,16.00
2019-06-01T20:02:33.759Z,16.00
2019-06-01T20:05:06.676Z,15.90
2019-06-01T20:07:45.264Z,15.80
2019-06-01T20:10:23.285Z,15.70
2019-06-01T20:13:01.446Z,15.60
2019-06-01T20:15:38.946Z,15.50
2019-06-01T20:18:19.089Z,15.50
2019-06-01T20:20:56.572Z,15.50
2019-06-01T20:23:33.938Z,15.40
2019-06-01T20:26:11.300Z,15.40
2019-06-01T20:28:52.254Z,15.30
2019-06-01T20:31:29.727Z,15.40
2019-06-01T20:34:07.592Z,15.40
2019-06-01T20:36:45.392Z,15.30
2019-06-01T20:39:23.274Z,15.40
2019-06-01T20:42:17.230Z,15.40
2019-06-01T20:44:43.570Z,15.40
2019-06-01T20:47:22.879Z,15.30
2019-06-01T20:50:00.471Z,15.30
2019-06-01T20:52:38.216Z,15.40
2019-06-01T20:55:17.401Z,15.40
2019-06-01T20:57:55.571Z,15.30
2019-06-01T21:00:33.078Z,15.30
2019-06-01T21:03:10.508Z,15.30
2019-06-01T21:05:48.463Z,15.30
2019-06-01T21:08:28.702Z,15.40
2019-06-01T21:11:07.051Z,15.40
2019-06-01T21:13:44.316Z,15.40
2019-06-01T21:16:22.383Z,15.50
2019-06-01T21:19:00.629Z,15.50
2019-06-01T21:21:38.325Z,15.40
2019-06-01T21:24:16.856Z,15.40
2019-06-01T21:26:54.535Z,15.40
2019-06-01T21:29:32.004Z,15.40
2019-06-01T21:32:09.786Z,15.40
2019-06-01T21:34:48.690Z,15.40
2019-06-01T21:37:26.555Z,15.40
2019-06-01T21:40:04.342Z,15.40
2019-06-01T21:42:41.681Z,15.50
2019-06-01T21:45:19.565Z,15.40
2019-06-01T21:47:58.322Z,15.40
2019-06-01T21:50:35.757Z,15.30
2019-06-01T21:53:13.171Z,15.30
2019-06-01T21:55:50.394Z,15.30
2019-06-01T21:58:28.374Z,15.30
2019-06-01T22:01:08.448Z,15.30
2019-06-01T22:03:46.851Z,15.10
2019-06-01T22:06:25.619Z,15.10
2019-06-01T22:09:03.726Z,15.10
2019-06-01T22:11:43.316Z,15.00
2019-06-01T22:14:21.393Z,15.00
2019-06-01T22:16:58.754Z,14.90
2019-06-01T22:19:36.001Z,14.90
2019-06-01T22:22:13.602Z,14.80
2019-06-01T22:24:51.030Z,14.70
2019-06-01T22:27:28.566Z,14.70
2019-06-01T22:30:07.936Z,14.60
2019-06-01T22:32:45.981Z,14.50
2019-06-01T22:35:24.663Z,14.40
2019-06-01T22:38:03.371Z,14.40
2019-06-01T22:40:40.801Z,14.30
2019-06-01T22:43:32.887Z,14.30
2019-06-01T22:45:57.515Z,14.30
2019-06-01T22:48:35.469Z,14.20
2019-06-01T22:51:13.489Z,14.30
2019-06-01T22:53:52.387Z,14.30
